Time;durP1;ratioP1;P1;durP2;ratioP2;P2;SDS_P1;SDS_P2;PMS_P1;PMS_P2;Temp;Humidity;BMP_temperature;BMP_pressure;BME280_temperature;BME280_humidity;BME280_pressure;Samples;Min_cycle;Max_cycle;Signal;HPM_P1;HPM_P2
2024/01/18 00:00:16;;;;;;;15.60;9.20;;;;;;;3.35;65.42;96339.03;231767;198;138373;-56
2024/01/18 00:05:39;;;;;;;15.60;9.20;;;;;;;3.21;65.69;96339.05;231737;198;154981;-56
2024/01/18 00:10:42;;;;;;;15.70;9.90;;;;;;;3.08;65.95;96332.33;231866;198;137873;-56
2024/01/18 00:15:45;;;;;;;17.10;9.60;;;;;;;2.98;66.25;96337.30;231792;198;138460;-56
2024/01/18 00:20:48;;;;;;;17.00;9.80;;;;;;;2.88;66.45;96341.23;231713;198;153731;-56
2024/01/18 00:25:52;;;;;;;16.90;10.10;;;;;;;2.82;66.80;96346.92;231727;199;138566;-58
2024/01/18 00:30:55;;;;;;;20.10;11.40;;;;;;;2.77;67.14;96345.14;231709;198;139339;-57
2024/01/18 00:35:58;;;;;;;17.50;10.00;;;;;;;2.75;67.51;96347.77;231516;206;153242;-54
2024/01/18 00:41:02;;;;;;;17.40;10.50;;;;;;;2.72;67.85;96353.59;231601;198;139224;-57
2024/01/18 00:46:05;;;;;;;17.10;10.30;;;;;;;2.72;68.17;96345.73;231780;198;138429;-56
2024/01/18 00:51:09;;;;;;;16.00;9.80;;;;;;;2.72;68.79;96339.40;231755;202;153255;-55
2024/01/18 00:56:12;;;;;;;16.00;9.50;;;;;;;2.78;69.19;96341.80;231762;198;137771;-58
2024/01/18 01:01:18;;;;;;;18.20;9.90;;;;;;;2.86;69.39;96351.30;231626;205;138628;-55
2024/01/18 01:06:21;;;;;;;17.80;10.50;;;;;;;2.93;69.43;96350.99;231160;198;154368;-56
2024/01/18 01:11:24;;;;;;;17.90;10.70;;;;;;;2.98;69.42;96347.63;231941;198;137436;-57
2024/01/18 01:16:27;;;;;;;15.10;9.60;;;;;;;3.06;69.57;96352.44;231599;198;138672;-57
2024/01/18 01:21:30;;;;;;;14.20;9.30;;;;;;;3.15;69.24;96351.77;231858;198;153709;-57
2024/01/18 01:26:33;;;;;;;16.80;10.00;;;;;;;3.19;68.85;96349.72;231724;205;137452;-56
2024/01/18 01:31:36;;;;;;;16.70;9.00;;;;;;;3.23;68.84;96340.66;231916;199;138470;-53
2024/01/18 01:36:40;;;;;;;16.90;9.70;;;;;;;3.22;68.72;96340.73;231973;204;154009;-55
2024/01/18 01:41:43;;;;;;;15.40;9.80;;;;;;;3.19;68.61;96340.13;231673;204;138943;-51
2024/01/18 01:46:46;;;;;;;15.90;9.90;;;;;;;3.17;68.99;96331.31;232208;209;137913;-54
2024/01/18 01:51:51;;;;;;;17.20;9.80;;;;;;;3.20;69.41;96329.84;231804;201;154557;-52
2024/01/18 01:56:56;;;;;;;15.60;8.90;;;;;;;3.26;69.82;96324.47;231833;198;139302;-56
2024/01/18 02:02:00;;;;;;;13.60;9.10;;;;;;;3.32;70.64;96311.77;231528;203;139133;-52
2024/01/18 02:07:04;;;;;;;13.50;8.70;;;;;;;3.47;71.09;96298.58;231691;198;153416;-54
2024/01/18 02:12:08;;;;;;;13.70;8.30;;;;;;;3.62;71.08;96298.28;231827;205;139401;-54
2024/01/18 02:17:11;;;;;;;13.10;8.00;;;;;;;3.71;71.11;96312.09;231907;205;139711;-54
2024/01/18 02:22:17;;;;;;;12.00;7.80;;;;;;;3.81;71.05;96318.80;231825;198;153250;-54
2024/01/18 02:27:20;;;;;;;14.90;7.70;;;;;;;3.98;71.03;96321.54;231752;202;137588;-56
2024/01/18 02:32:23;;;;;;;11.50;7.20;;;;;;;4.11;70.76;96316.09;231820;198;138541;-57
2024/01/18 02:37:26;;;;;;;13.70;9.20;;;;;;;4.20;70.55;96307.82;231723;205;153228;-55
2024/01/18 02:42:29;;;;;;;10.00;6.50;;;;;;;4.27;70.53;96310.90;231510;205;138583;-55
2024/01/18 02:47:34;;;;;;;11.10;7.00;;;;;;;4.38;71.33;96306.92;231905;199;137891;-53
2024/01/18 02:52:38;;;;;;;10.80;6.70;;;;;;;4.47;71.16;96307.18;231706;203;154585;-51
2024/01/18 02:57:42;;;;;;;9.40;6.20;;;;;;;4.56;71.52;96307.59;231788;197;138191;-55
2024/01/18 03:02:45;;;;;;;9.40;5.80;;;;;;;4.72;72.22;96302.90;231584;201;138733;-54
2024/01/18 03:07:48;;;;;;;9.10;5.80;;;;;;;5.07;72.72;96297.86;231869;197;153219;-54
2024/01/18 03:12:51;;;;;;;9.70;6.00;;;;;;;5.28;71.57;96289.80;231885;198;138943;-55
2024/01/18 03:17:55;;;;;;;10.10;6.80;;;;;;;5.26;70.19;96283.45;231885;201;137846;-55
2024/01/18 03:22:58;;;;;;;14.00;7.30;;;;;;;5.09;69.63;96282.59;231960;198;153716;-53
2024/01/18 03:28:02;;;;;;;13.50;8.10;;;;;;;4.91;69.27;96283.52;231682;201;138622;-54
2024/01/18 03:33:05;;;;;;;19.80;13.00;;;;;;;4.76;69.34;96291.02;231859;205;137901;-53
2024/01/18 03:38:08;;;;;;;28.70;15.10;;;;;;;4.63;69.53;96297.12;231827;201;153105;-55
2024/01/18 03:43:11;;;;;;;28.30;15.20;;;;;;;4.58;69.82;96306.36;231933;197;137991;-54
2024/01/18 03:48:14;;;;;;;23.50;14.30;;;;;;;4.49;69.87;96303.16;231746;203;138344;-55
2024/01/18 03:53:18;;;;;;;27.00;14.50;;;;;;;4.44;70.22;96306.96;232038;204;153145;-55
2024/01/18 03:58:21;;;;;;;24.50;13.70;;;;;;;4.43;70.51;96305.59;231778;202;138652;-55
2024/01/18 04:03:25;;;;;;;21.50;14.10;;;;;;;4.48;70.87;96297.96;231778;205;138033;-56
2024/01/18 04:08:28;;;;;;;21.60;12.10;;;;;;;4.54;71.06;96296.67;231606;198;154759;-52
2024/01/18 04:13:32;;;;;;;20.20;12.00;;;;;;;4.56;71.31;96293.68;231584;198;138658;-55
2024/01/18 04:18:35;;;;;;;46.30;29.20;;;;;;;4.75;72.27;96289.49;231855;198;138671;-54
2024/01/18 04:23:38;;;;;;;55.40;33.10;;;;;;;4.80;71.47;96284.72;231853;201;153328;-55
2024/01/18 04:28:41;;;;;;;210.90;149.30;;;;;;;4.78;71.41;96285.00;231902;197;138254;-56
2024/01/18 04:33:45;;;;;;;31.30;20.30;;;;;;;4.78;71.66;96284.98;231770;199;143493;-55
2024/01/18 04:38:48;;;;;;;17.20;9.90;;;;;;;4.84;72.53;96292.08;231791;198;153218;-55
2024/01/18 04:43:51;;;;;;;18.40;8.90;;;;;;;4.90;72.26;96299.95;231836;198;140012;-55
2024/01/18 04:48:54;;;;;;;16.70;8.50;;;;;;;4.97;72.46;96300.98;231304;205;140277;-53
2024/01/18 04:53:58;;;;;;;17.80;9.50;;;;;;;5.08;72.22;96302.19;231897;198;153116;-55
2024/01/18 04:59:02;;;;;;;19.60;8.50;;;;;;;5.13;72.32;96308.63;232025;205;138449;-56
2024/01/18 05:04:05;;;;;;;19.00;9.20;;;;;;;5.11;72.34;96316.17;231876;200;137946;-55
2024/01/18 05:09:09;;;;;;;244.40;162.20;;;;;;;5.09;73.00;96328.66;231922;204;153578;-57
2024/01/18 05:14:13;;;;;;;49.40;32.70;;;;;;;5.17;73.42;96331.33;231938;205;138580;-56
2024/01/18 05:19:16;;;;;;;17.70;8.90;;;;;;;5.28;73.48;96328.61;231927;205;138146;-55
2024/01/18 05:24:20;;;;;;;14.50;7.00;;;;;;;5.29;72.98;96332.42;231999;205;153779;-56
2024/01/18 05:29:23;;;;;;;13.80;8.30;;;;;;;5.28;73.23;96328.24;232022;198;143082;-55
2024/01/18 05:34:26;;;;;;;14.80;8.20;;;;;;;5.34;72.71;96324.61;231845;202;138236;-57
2024/01/18 05:39:30;;;;;;;15.80;8.30;;;;;;;5.39;72.27;96336.65;231857;198;153350;-57
2024/01/18 05:44:33;;;;;;;17.00;10.10;;;;;;;5.39;72.57;96341.04;231895;198;137855;-57
2024/01/18 05:49:36;;;;;;;13.80;8.30;;;;;;;5.39;72.42;96345.23;231862;198;137802;-57
2024/01/18 05:54:39;;;;;;;15.50;7.60;;;;;;;5.37;72.77;96355.06;231945;198;154179;-54
2024/01/18 05:59:43;;;;;;;10.30;5.90;;;;;;;5.44;73.28;96359.79;231786;198;138165;-56
2024/01/18 06:04:47;;;;;;;12.50;7.30;;;;;;;5.62;74.12;96361.76;231944;205;142718;-57
2024/01/18 06:09:50;;;;;;;16.80;7.50;;;;;;;5.73;73.56;96364.52;231923;198;153149;-54
2024/01/18 06:14:53;;;;;;;12.90;6.30;;;;;;;5.74;73.64;96367.62;231627;202;139197;-59
2024/01/18 06:19:56;;;;;;;13.60;6.10;;;;;;;5.81;73.37;96370.53;231669;205;138458;-59
2024/01/18 06:25:00;;;;;;;5.20;3.20;;;;;;;6.01;74.34;96375.88;232019;198;154380;-58
2024/01/18 06:30:10;;;;;;;7.40;3.10;;;;;;;6.43;77.40;96376.96;231951;198;138807;-57
2024/01/18 06:35:14;;;;;;;6.10;3.20;;;;;;;6.84;78.57;96379.46;232034;197;139114;-57
2024/01/18 06:40:18;;;;;;;5.00;2.50;;;;;;;7.14;79.53;96383.25;231834;198;153379;-58
2024/01/18 06:45:21;;;;;;;6.90;3.10;;;;;;;7.37;79.48;96383.86;231858;198;138892;-57
2024/01/18 06:50:25;;;;;;;5.40;2.70;;;;;;;7.57;79.53;96381.77;231845;198;138587;-57
2024/01/18 06:55:28;;;;;;;7.00;2.80;;;;;;;7.81;79.47;96386.48;231940;198;153099;-57
2024/01/18 07:00:32;;;;;;;6.80;3.30;;;;;;;8.04;78.91;96391.02;231962;197;137494;-57
2024/01/18 07:05:36;;;;;;;6.00;3.60;;;;;;;8.20;78.33;96394.83;231962;198;137690;-58
2024/01/18 07:10:39;;;;;;;7.00;3.80;;;;;;;8.32;78.23;96393.30;231448;202;154418;-52
2024/01/18 07:15:42;;;;;;;8.20;3.20;;;;;;;8.38;77.96;96390.41;231615;198;138639;-56
2024/01/18 07:20:46;;;;;;;6.40;3.20;;;;;;;8.43;77.88;96399.86;231877;198;138148;-56
2024/01/18 07:25:49;;;;;;;6.00;2.90;;;;;;;8.45;77.75;96402.50;230460;205;153207;-55
2024/01/18 07:30:52;;;;;;;6.10;3.10;;;;;;;8.45;77.72;96401.80;231833;201;138465;-57
2024/01/18 07:35:55;;;;;;;5.50;3.10;;;;;;;8.48;77.66;96404.67;231890;197;139463;-56
2024/01/18 07:40:58;;;;;;;8.80;3.30;;;;;;;8.61;77.59;96409.82;231971;198;153313;-56
2024/01/18 07:46:02;;;;;;;7.00;2.70;;;;;;;8.75;77.40;96412.83;231843;203;140034;-58
2024/01/18 07:51:06;;;;;;;5.70;3.40;;;;;;;8.84;77.02;96412.86;231868;202;152829;-57
2024/01/18 07:56:11;;;;;;;8.80;3.40;;;;;;;8.88;76.87;96415.55;231749;198;154224;-55
2024/01/18 08:01:16;;;;;;;5.70;3.00;;;;;;;8.89;76.87;96419.85;231700;198;138728;-57
2024/01/18 08:06:19;;;;;;;6.90;3.10;;;;;;;8.91;76.85;96428.42;231710;198;137915;-57
2024/01/18 08:11:22;;;;;;;4.10;2.90;;;;;;;8.92;76.71;96427.99;231779;198;155091;-58
2024/01/18 08:16:25;;;;;;;6.90;3.10;;;;;;;8.90;76.45;96430.83;231778;198;138918;-57
2024/01/18 08:21:28;;;;;;;6.80;3.40;;;;;;;8.90;76.82;96438.65;231665;199;138588;-57
2024/01/18 08:26:32;;;;;;;5.30;3.50;;;;;;;8.93;76.81;96443.08;231738;205;153364;-56
2024/01/18 08:31:35;;;;;;;110.20;76.70;;;;;;;9.02;76.96;96450.39;231552;198;139553;-58
2024/01/18 08:36:38;;;;;;;10.10;6.40;;;;;;;9.09;76.63;96457.10;231614;205;138394;-55
2024/01/18 08:41:42;;;;;;;10.10;5.00;;;;;;;9.02;76.23;96464.52;231689;202;154263;-57
2024/01/18 08:46:45;;;;;;;10.90;5.20;;;;;;;8.95;76.25;96469.50;231844;198;138628;-56
2024/01/18 08:51:48;;;;;;;8.30;4.70;;;;;;;8.93;76.30;96477.78;231501;198;137689;-56
2024/01/18 08:56:51;;;;;;;8.20;5.20;;;;;;;8.94;76.22;96485.31;231618;198;153240;-56
2024/01/18 09:01:55;;;;;;;12.60;6.10;;;;;;;8.93;76.18;96489.62;231696;201;137992;-56
2024/01/18 09:07:00;;;;;;;13.30;7.00;;;;;;;8.95;76.16;96499.38;231824;198;138833;-57
2024/01/18 09:12:04;;;;;;;11.90;7.80;;;;;;;8.87;75.87;96505.23;231468;201;153424;-57
2024/01/18 09:17:07;;;;;;;14.40;9.50;;;;;;;8.71;75.97;96520.54;231770;198;138279;-56
2024/01/18 09:22:10;;;;;;;14.50;10.70;;;;;;;8.63;75.77;96524.47;230845;205;138545;-56
2024/01/18 09:27:13;;;;;;;17.80;11.10;;;;;;;8.45;75.50;96535.21;231707;205;153121;-56
2024/01/18 09:32:16;;;;;;;17.20;12.20;;;;;;;8.27;75.60;96540.36;231710;198;139157;-56
2024/01/18 09:37:19;;;;;;;18.20;12.70;;;;;;;8.17;75.80;96543.11;231706;198;138033;-55
2024/01/18 09:42:28;;;;;;;18.80;14.00;;;;;;;8.04;75.95;96559.04;231734;205;153859;-54
2024/01/18 09:47:31;;;;;;;21.90;12.90;;;;;;;8.06;76.03;96558.34;231859;201;138289;-53
2024/01/18 09:52:34;;;;;;;16.90;12.60;;;;;;;8.06;76.12;96561.39;231148;198;139061;-56
2024/01/18 09:57:42;;;;;;;18.30;13.30;;;;;;;8.12;75.98;96561.18;231477;198;153806;-56
2024/01/18 10:02:46;;;;;;;17.10;12.90;;;;;;;8.24;75.52;96567.11;231506;197;138682;-56
2024/01/18 10:07:49;;;;;;;19.00;11.70;;;;;;;8.37;75.24;96568.45;231581;198;138962;-53
2024/01/18 10:12:52;;;;;;;17.20;12.20;;;;;;;8.49;74.86;96568.73;231635;201;153572;-61
2024/01/18 10:17:55;;;;;;;22.00;12.50;;;;;;;8.59;74.17;96566.98;231230;198;141045;-57
2024/01/18 10:23:00;;;;;;;20.80;13.10;;;;;;;8.66;73.81;96569.28;231484;198;141592;-57
2024/01/18 10:28:06;;;;;;;16.00;13.20;;;;;;;8.65;73.52;96573.95;231480;198;155320;-58
2024/01/18 10:33:11;;;;;;;18.80;13.00;;;;;;;8.56;73.38;96579.97;231823;198;138552;-58
2024/01/18 10:38:15;;;;;;;22.60;13.60;;;;;;;8.43;73.39;96585.95;231896;198;138491;-59
2024/01/18 10:43:20;;;;;;;17.40;12.20;;;;;;;8.31;73.53;96591.42;231858;198;154519;-56
2024/01/18 10:48:24;;;;;;;17.20;12.70;;;;;;;8.19;73.59;96599.95;231872;197;138275;-59
2024/01/18 10:53:36;;;;;;;19.80;14.70;;;;;;;8.14;73.74;96602.34;232267;209;138527;-58
2024/01/18 10:58:39;;;;;;;22.20;14.60;;;;;;;8.16;73.55;96607.51;231772;197;153881;-57
2024/01/18 11:03:43;;;;;;;22.00;15.00;;;;;;;8.13;73.29;96618.19;231730;197;137969;-59
2024/01/18 11:08:48;;;;;;;20.90;15.80;;;;;;;8.04;73.38;96621.72;231637;199;138776;-58
2024/01/18 11:13:51;;;;;;;23.90;16.30;;;;;;;8.02;73.33;96624.28;231871;198;153329;-59
2024/01/18 11:18:59;;;;;;;24.00;16.20;;;;;;;8.02;73.26;96626.03;231892;197;138016;-57
2024/01/18 11:24:14;;;;;;;24.40;19.00;;;;;;;7.94;73.18;96620.57;231906;198;139716;-57
2024/01/18 11:29:19;;;;;;;23.90;17.80;;;;;;;7.86;73.28;96623.40;231952;197;153453;-58
2024/01/18 11:34:36;;;;;;;24.00;17.60;;;;;;;7.77;73.27;96621.89;231838;197;138353;-58
2024/01/18 11:39:48;;;;;;;22.90;16.60;;;;;;;7.70;73.40;96622.89;231834;198;139037;-58
2024/01/18 11:44:54;;;;;;;29.90;20.10;;;;;;;7.72;73.54;96618.85;231808;198;153254;-58
2024/01/18 11:50:01;;;;;;;29.60;20.10;;;;;;;7.75;73.35;96625.27;231754;201;138392;-58
2024/01/18 11:55:05;;;;;;;29.40;20.10;;;;;;;7.75;72.99;96624.20;231729;203;138265;-57
2024/01/18 12:00:10;;;;;;;29.70;20.90;;;;;;;7.75;72.95;96621.95;231877;198;153935;-58
2024/01/18 12:05:16;;;;;;;27.00;19.40;;;;;;;7.68;72.85;96621.15;231291;201;139503;-58
2024/01/18 12:10:19;;;;;;;25.70;19.20;;;;;;;7.62;72.73;96612.54;231784;198;137477;-57
2024/01/18 12:15:23;;;;;;;32.40;21.00;;;;;;;7.58;72.60;96609.63;231724;197;153334;-57
2024/01/18 12:20:26;;;;;;;32.80;21.90;;;;;;;7.54;72.85;96616.36;231647;205;138257;-56
2024/01/18 12:25:32;;;;;;;27.90;19.40;;;;;;;7.54;72.91;96619.92;231855;198;139892;-59
2024/01/18 12:30:40;;;;;;;26.90;19.20;;;;;;;7.52;72.83;96629.62;231788;201;153011;-58
2024/01/18 12:35:46;;;;;;;30.80;20.30;;;;;;;7.54;72.88;96632.58;231785;198;140503;-58
2024/01/18 12:40:49;;;;;;;;;;;;;;;7.57;72.70;96627.58;232223;206;138334;-58
2024/01/18 12:45:53;;;;;;;30.80;20.10;;;;;;;7.58;72.52;96628.40;231800;198;153098;-58
2024/01/18 12:50:57;;;;;;;27.50;18.30;;;;;;;7.54;72.47;96640.94;231736;198;137282;-58
2024/01/18 12:56:00;;;;;;;27.40;19.20;;;;;;;7.51;72.38;96645.77;231786;197;138527;-58
2024/01/18 13:01:04;;;;;;;25.40;17.30;;;;;;;7.47;72.22;96649.77;231657;199;154856;-58
2024/01/18 13:06:12;;;;;;;26.20;18.00;;;;;;;7.43;72.15;96656.88;231818;198;138389;-59
2024/01/18 13:11:16;;;;;;;24.70;18.00;;;;;;;7.40;72.24;96656.13;231575;198;138085;-56
2024/01/18 13:16:22;;;;;;;26.10;17.10;;;;;;;7.32;71.88;96658.02;231640;198;153183;-57
2024/01/18 13:21:32;;;;;;;26.70;17.50;;;;;;;7.21;72.00;96668.64;231787;205;138357;-56
2024/01/18 13:26:36;;;;;;;24.00;16.60;;;;;;;7.13;72.26;96670.41;231167;202;139220;-57
2024/01/18 13:31:39;;;;;;;24.60;15.60;;;;;;;7.11;72.46;96678.70;231863;197;153375;-58
2024/01/18 13:36:43;;;;;;;26.40;16.50;;;;;;;7.13;72.39;96678.21;231957;198;139567;-56
2024/01/18 13:41:46;;;;;;;24.70;16.10;;;;;;;7.15;72.56;96682.79;231912;205;137568;-57
2024/01/18 13:46:49;;;;;;;23.90;15.00;;;;;;;7.14;72.44;96686.59;231639;205;153165;-56
2024/01/18 13:51:53;;;;;;;21.90;14.80;;;;;;;7.10;72.32;96704.13;231774;202;138955;-56
2024/01/18 13:56:57;;;;;;;18.30;12.60;;;;;;;7.01;72.18;96707.94;231878;197;138433;-56
2024/01/18 14:02:00;;;;;;;20.20;12.80;;;;;;;6.94;72.19;96716.33;231122;205;154127;-56
2024/01/18 14:07:03;;;;;;;16.40;11.20;;;;;;;6.99;72.35;96723.61;231101;205;139763;-57
2024/01/18 14:12:07;;;;;;;18.10;11.90;;;;;;;7.02;71.95;96727.73;230808;201;138746;-56
2024/01/18 14:17:10;;;;;;;17.00;11.40;;;;;;;7.04;71.84;96733.09;231695;202;154220;-61
2024/01/18 14:22:13;;;;;;;18.10;12.90;;;;;;;7.09;71.73;96729.98;231584;203;138602;-57
2024/01/18 14:27:16;;;;;;;19.00;12.60;;;;;;;7.17;71.63;96730.96;231498;198;138640;-56
2024/01/18 14:32:20;;;;;;;20.60;12.90;;;;;;;7.19;71.51;96729.19;231575;205;153255;-57
2024/01/18 14:37:24;;;;;;;21.10;15.60;;;;;;;7.11;71.01;96725.92;231451;205;138294;-57
2024/01/18 14:42:27;;;;;;;30.00;19.50;;;;;;;7.10;71.15;96728.54;231165;201;138730;-57
2024/01/18 14:47:30;;;;;;;32.50;21.90;;;;;;;7.07;71.11;96723.47;231683;203;153024;-58
2024/01/18 14:52:33;;;;;;;37.70;24.70;;;;;;;7.00;71.22;96716.80;231509;198;138476;-58
2024/01/18 14:57:37;;;;;;;41.00;26.10;;;;;;;6.90;70.82;96719.11;231542;198;139402;-58
2024/01/18 15:02:40;;;;;;;37.30;23.60;;;;;;;6.79;70.68;96725.13;231561;199;153838;-58
2024/01/18 15:07:44;;;;;;;35.00;21.90;;;;;;;6.66;70.51;96733.78;231499;198;137675;-58
2024/01/18 15:12:47;;;;;;;34.30;21.40;;;;;;;6.58;70.46;96734.83;231112;205;138993;-59
2024/01/18 15:17:51;;;;;;;34.80;22.60;;;;;;;6.52;70.48;96736.52;230935;199;154208;-58
2024/01/18 15:22:54;;;;;;;33.60;22.30;;;;;;;6.50;70.42;96748.67;231649;198;138297;-58
2024/01/18 15:27:59;;;;;;;30.70;20.70;;;;;;;6.53;70.29;96761.68;231563;205;138007;-58
2024/01/18 15:33:04;;;;;;;25.30;17.60;;;;;;;6.48;70.12;96762.25;231579;198;153085;-56
2024/01/18 15:38:08;;;;;;;25.10;15.80;;;;;;;6.41;70.12;96754.88;231636;199;139421;-57
2024/01/18 15:43:12;;;;;;;23.70;15.50;;;;;;;6.35;70.03;96765.42;231156;198;138553;-58
2024/01/18 15:48:19;;;;;;;22.30;15.40;;;;;;;6.27;70.17;96778.73;231714;198;153140;-57
2024/01/18 15:53:22;;;;;;;23.50;16.10;;;;;;;6.20;70.09;96778.23;231697;198;140178;-59
2024/01/18 15:58:25;;;;;;;25.80;16.50;;;;;;;6.10;70.27;96761.98;231726;197;236384;-58
2024/01/18 16:03:29;;;;;;;27.60;16.80;;;;;;;5.95;70.41;96754.73;231755;198;154048;-58
2024/01/18 16:08:35;;;;;;;29.30;18.20;;;;;;;5.81;70.66;96752.33;231714;204;139780;-58
2024/01/18 16:13:39;;;;;;;31.80;19.20;;;;;;;5.69;71.08;96757.65;231670;201;138217;-58
2024/01/18 16:18:42;;;;;;;29.10;18.60;;;;;;;5.65;71.43;96774.86;231619;198;153273;-58
2024/01/18 16:23:46;;;;;;;31.00;20.20;;;;;;;5.67;71.23;96783.46;231709;198;139208;-58
2024/01/18 16:28:49;;;;;;;26.90;18.20;;;;;;;5.71;71.44;96787.25;231775;197;275491;-58
2024/01/18 16:33:52;;;;;;;28.10;18.70;;;;;;;5.71;71.10;96788.45;231553;201;153952;-58
2024/01/18 16:38:55;;;;;;;24.40;17.00;;;;;;;5.67;70.94;96789.44;231631;198;138029;-58
2024/01/18 16:43:58;;;;;;;24.80;15.90;;;;;;;5.64;70.83;96789.56;231756;198;138681;-56
2024/01/18 16:49:03;;;;;;;22.20;14.60;;;;;;;5.56;70.81;96794.61;231786;198;154346;-58
2024/01/18 16:54:06;;;;;;;18.30;13.10;;;;;;;5.49;70.89;96800.72;231775;204;153998;-58
2024/01/18 16:59:10;;;;;;;20.70;13.70;;;;;;;5.41;71.02;96809.92;232057;205;139859;-58
2024/01/18 17:04:14;;;;;;;18.00;12.00;;;;;;;5.36;71.02;96817.59;231723;197;153658;-57
2024/01/18 17:09:17;;;;;;;16.50;11.90;;;;;;;5.29;71.13;96813.86;231763;203;138840;-58
2024/01/18 17:14:20;;;;;;;66.70;36.10;;;;;;;5.32;72.09;96810.32;231794;198;138167;-59
2024/01/18 17:19:23;;;;;;;16.50;11.90;;;;;;;5.37;71.21;96827.48;231766;204;154098;-58
2024/01/18 17:24:28;;;;;;;18.40;12.70;;;;;;;5.37;71.05;96853.73;231819;202;138424;-59
2024/01/18 17:29:31;;;;;;;20.80;14.10;;;;;;;5.37;70.97;96868.33;231857;198;137986;-59
2024/01/18 17:34:35;;;;;;;22.00;14.30;;;;;;;5.35;70.77;96876.00;231719;205;153275;-60
2024/01/18 17:39:39;;;;;;;21.70;15.20;;;;;;;5.31;70.67;96880.69;231406;198;138733;-58
2024/01/18 17:44:44;;;;;;;22.60;15.30;;;;;;;5.29;70.68;96907.92;231736;198;138528;-58
2024/01/18 17:49:47;;;;;;;26.30;17.30;;;;;;;5.30;70.71;96918.60;231633;205;153967;-57
2024/01/18 17:54:56;;;;;;;25.00;16.10;;;;;;;5.28;70.36;96923.35;231729;202;138892;-56
2024/01/18 17:59:59;;;;;;;22.30;15.00;;;;;;;5.25;70.40;96934.29;231705;198;141671;-58
2024/01/18 18:05:04;;;;;;;25.40;15.20;;;;;;;5.14;70.50;96950.71;231877;203;153187;-58
2024/01/18 18:10:10;;;;;;;18.30;13.30;;;;;;;5.09;70.48;96968.86;231595;201;138559;-58
2024/01/18 18:15:14;;;;;;;16.50;11.20;;;;;;;5.00;70.19;96980.58;231722;198;137866;-57
2024/01/18 18:20:17;;;;;;;15.50;10.50;;;;;;;4.90;70.31;96996.26;231821;198;154363;-56
2024/01/18 18:25:21;;;;;;;15.10;10.30;;;;;;;4.88;70.41;97007.65;231737;198;139389;-58
2024/01/18 18:30:24;;;;;;;15.40;10.70;;;;;;;4.83;70.21;97028.85;231711;197;138672;-59
2024/01/18 18:35:36;;;;;;;17.80;11.60;;;;;;;4.80;70.36;97045.77;231972;198;153221;-62
2024/01/18 18:40:39;;;;;;;18.30;12.20;;;;;;;4.83;70.31;97053.14;231581;199;138497;-58
2024/01/18 18:45:43;;;;;;;15.30;11.10;;;;;;;4.80;70.18;97064.59;231859;202;138409;-58
2024/01/18 18:50:46;;;;;;;15.30;10.80;;;;;;;4.74;70.36;97076.77;230877;198;153900;-56
2024/01/18 18:55:50;;;;;;;17.10;11.80;;;;;;;4.68;70.24;97092.43;231761;197;140024;-57
2024/01/18 19:00:53;;;;;;;20.70;13.00;;;;;;;4.55;70.32;97105.69;231866;198;137452;-58
2024/01/18 19:05:57;;;;;;;20.90;13.00;;;;;;;4.58;70.49;97117.92;231754;201;154723;-58
2024/01/18 19:11:02;;;;;;;20.50;14.00;;;;;;;4.56;70.30;97130.50;231800;204;138112;-55
2024/01/18 19:16:07;;;;;;;21.20;14.30;;;;;;;4.48;70.33;97146.64;231798;198;138984;-57
2024/01/18 19:21:11;;;;;;;22.60;15.00;;;;;;;4.44;70.28;97157.64;231724;202;153710;-57
2024/01/18 19:26:15;;;;;;;181.50;117.20;;;;;;;4.45;71.71;97162.35;231816;197;137448;-59
2024/01/18 19:31:18;;;;;;;26.00;16.50;;;;;;;4.79;71.19;97177.91;231505;197;139099;-58
2024/01/18 19:36:21;;;;;;;24.60;17.00;;;;;;;4.76;69.74;97200.45;231884;204;153856;-58
2024/01/18 19:41:27;;;;;;;30.40;19.40;;;;;;;4.56;69.61;97210.94;231822;198;139135;-58
2024/01/18 19:46:30;;;;;;;33.30;21.90;;;;;;;4.51;69.70;97224.48;231719;205;138054;-58
2024/01/18 19:51:34;;;;;;;35.80;23.80;;;;;;;4.50;69.63;97238.19;231522;198;153731;-59
2024/01/18 19:56:37;;;;;;;38.00;25.50;;;;;;;4.39;69.45;97254.94;231606;198;138069;-58
2024/01/18 20:01:41;;;;;;;234.50;148.90;;;;;;;4.34;69.59;97276.50;231757;199;138369;-60
2024/01/18 20:06:45;;;;;;;37.00;25.90;;;;;;;4.42;69.39;97287.02;231745;198;155156;-58
2024/01/18 20:11:48;;;;;;;336.60;229.20;;;;;;;4.30;69.39;97300.78;231667;198;137244;-55
2024/01/18 20:16:54;;;;;;;60.10;34.80;;;;;;;4.35;69.40;97315.95;231799;202;138223;-56
2024/01/18 20:21:58;;;;;;;34.20;23.40;;;;;;;4.20;68.57;97333.20;231634;205;154059;-56
2024/01/18 20:27:03;;;;;;;35.00;22.60;;;;;;;4.00;68.46;97356.92;231623;198;138099;-56
2024/01/18 20:32:06;;;;;;;33.60;23.00;;;;;;;3.95;68.45;97369.89;231371;198;138862;-57
2024/01/18 20:37:10;;;;;;;33.40;21.80;;;;;;;3.75;68.48;97385.35;231606;202;154681;-57
2024/01/18 20:42:13;;;;;;;32.00;21.60;;;;;;;3.65;68.97;97401.88;231612;205;138390;-54
2024/01/18 20:47:16;;;;;;;32.70;21.10;;;;;;;3.66;68.92;97414.99;231805;198;143513;-58
2024/01/18 20:52:20;;;;;;;32.00;22.50;;;;;;;3.65;68.81;97435.20;231644;202;153804;-56
2024/01/18 20:57:23;;;;;;;35.60;23.00;;;;;;;3.62;68.22;97454.70;231724;198;138348;-57
2024/01/18 21:02:26;;;;;;;33.20;22.20;;;;;;;3.43;68.26;97472.48;230981;205;138847;-55
2024/01/18 21:07:29;;;;;;;33.40;21.50;;;;;;;3.32;68.36;97487.30;231585;205;154562;-55
2024/01/18 21:12:32;;;;;;;28.40;18.60;;;;;;;3.28;68.54;97502.45;231907;198;138381;-57
2024/01/18 21:17:35;;;;;;;29.60;19.70;;;;;;;3.21;68.53;97525.80;232032;204;137921;-57
2024/01/18 21:22:43;;;;;;;415.50;295.10;;;;;;;3.16;70.39;97535.39;231930;204;153484;-57
2024/01/18 21:27:46;;;;;;;28.30;19.50;;;;;;;3.46;70.34;97549.57;231785;198;138617;-54
2024/01/18 21:32:49;;;;;;;24.80;15.00;;;;;;;3.25;68.55;97565.69;231406;198;138701;-58
2024/01/18 21:37:53;;;;;;;23.00;14.40;;;;;;;3.25;68.61;97573.21;231742;198;153202;-56
2024/01/18 21:42:56;;;;;;;22.10;14.40;;;;;;;3.27;68.43;97585.02;231889;204;138197;-58
2024/01/18 21:48:00;;;;;;;22.00;15.30;;;;;;;3.26;68.63;97595.23;231783;201;142827;-56
2024/01/18 21:53:03;;;;;;;23.40;15.90;;;;;;;3.25;68.71;97610.40;231873;198;155110;-57
2024/01/18 21:58:07;;;;;;;23.60;15.10;;;;;;;3.15;68.23;97617.08;231670;201;139349;-56
2024/01/18 22:03:10;;;;;;;24.10;15.50;;;;;;;3.09;68.37;97639.32;231833;199;138353;-58
2024/01/18 22:08:14;;;;;;;26.80;15.60;;;;;;;3.02;68.25;97644.95;231428;199;154545;-56
2024/01/18 22:13:17;;;;;;;26.30;15.40;;;;;;;2.88;68.17;97650.60;231932;204;138008;-54
2024/01/18 22:18:20;;;;;;;22.40;13.50;;;;;;;2.81;68.29;97670.22;231966;198;137501;-56
2024/01/18 22:23:24;;;;;;;19.80;13.10;;;;;;;2.74;68.20;97684.27;232025;204;153176;-56
2024/01/18 22:28:27;;;;;;;20.10;14.00;;;;;;;2.68;68.16;97694.77;231924;198;138954;-56
2024/01/18 22:33:30;;;;;;;23.20;13.60;;;;;;;2.66;68.28;97699.39;231835;205;142146;-56
2024/01/18 22:38:34;;;;;;;22.70;14.90;;;;;;;2.65;67.76;97704.52;231651;198;154819;-56
2024/01/18 22:43:38;;;;;;;25.10;14.50;;;;;;;2.60;67.81;97724.91;231880;198;138833;-56
2024/01/18 22:48:41;;;;;;;21.90;14.10;;;;;;;2.60;67.81;97732.08;231990;204;138229;-56
2024/01/18 22:53:45;;;;;;;25.40;14.70;;;;;;;2.57;67.90;97742.22;231951;201;153814;-56
2024/01/18 22:58:48;;;;;;;21.50;13.50;;;;;;;2.54;68.07;97762.66;231850;198;138213;-56
2024/01/18 23:03:51;;;;;;;21.00;12.30;;;;;;;2.52;67.84;97780.27;231777;198;138353;-55
2024/01/18 23:08:54;;;;;;;22.50;13.90;;;;;;;2.54;67.91;97790.86;231762;205;153494;-57
2024/01/18 23:13:58;;;;;;;18.10;11.90;;;;;;;2.57;67.94;97816.27;231792;198;138775;-56
2024/01/18 23:19:01;;;;;;;20.20;12.70;;;;;;;2.50;67.79;97822.75;231803;205;142231;-56